Aérodrome :
LOGIN :

S'inscrire | Disclaimer

   EN    FR    IT 

 










Légende :    VFR   VFR Marginal   IFR   IFR Intensif   IFR Très Intensif
Visi : 
Plafond : 
>= 8 km
>= 3000ft
5 à 8 km
1000 à 3000 ft
1500m à 5 km
500 à 1000 ft
800 à 1500m
200 à 500 ft
< 800m
< 200 ft
Symboles :   Orages  Brouillard  Fortes neiges  Fortes précipitations  Vent > 20 kt
SIGMETs :   Divers  Orages  Givrage  Turbulence  Onde Orograph.  Cendres Volcan.






- Altitude de l'aérodrome : 52 ft
- Code IATA : IOM


EGNS - Isle of Man

DERNIER METAR :
  • 020720Z 26014KT 9999 FEW004 BKN007 OVC014 08/07 Q1014 TEMPO 8000 -RA

METARs EXPIRÉS :
  • 020650Z 25015KT 9999 -RA FEW004 SCT007 OVC015 08/07 Q1014 TEMPO 8000 BKN007
  • 020620Z 25017KT 9000 -RA SCT007 BKN018 08/07 Q1015 TEMPO BKN007
  • 020550Z 27015KT 9999 -RA FEW007 SCT021 08/07 Q1015 NOSIG
  • 020520Z 25013KT 9999 FEW008 08/06 Q1015 NOSIG
  • 020450Z 25012KT 9999 FEW009 BKN045 08/06 Q1015

TAF TAF EGNS
Valide du 02 à 06h jusqu'au 02 à 09h UTC


020500Z 0206/0209 26016KT 9999 FEW008 BKN040
PROB30
TEMPO 0206/0209 8000 -RA BKN008



MET'MAP, la Météo Aéronautique d'un coup d'oeil ! - Copyright ORBIFLY Décembre 2007 - Disclaimer

ORBIFLY MET'MAP TEAM :

Programmation & Développement : Alexandra Zaïnal
Sur une idée originale de : Baudouin d'Aumeries
Assistance à la programmation : Marc-Olivier Méhu
Soutien technique & logistique : Manuel Goepfert

Contact : metmap@orbifly.com




SOURCES & CREDITS :

   NOAA